sensor_id;sensor_type;location;lat;lon;timestamp;pressure;altitude;pressure_sealevel;temperature;humidity
14882;BME280;7533;51.278;12.588;2023-02-26T00:00:44;99669.44;;;22.02;58.85
14882;BME280;7533;51.278;12.588;2023-02-26T00:05:47;99669.19;;;22.05;58.82
14882;BME280;7533;51.278;12.588;2023-02-26T00:10:51;99680.84;;;22.06;58.78
14882;BME280;7533;51.278;12.588;2023-02-26T00:15:58;99688.16;;;22.04;58.84
14882;BME280;7533;51.278;12.588;2023-02-26T00:21:02;99685.59;;;22.02;58.85
14882;BME280;7533;51.278;12.588;2023-02-26T00:26:05;99698.22;;;22.02;59.04
14882;BME280;7533;51.278;12.588;2023-02-26T00:31:10;99709.88;;;22.02;59.07
14882;BME280;7533;51.278;12.588;2023-02-26T00:36:20;99711.69;;;22.02;59.20
14882;BME280;7533;51.278;12.588;2023-02-26T00:41:23;99708.16;;;22.01;59.22
14882;BME280;7533;51.278;12.588;2023-02-26T00:46:36;99711.84;;;22.00;59.08
14882;BME280;7533;51.278;12.588;2023-02-26T00:51:46;99716.47;;;21.98;59.36
14882;BME280;7533;51.278;12.588;2023-02-26T00:56:51;99717.59;;;21.96;59.43
14882;BME280;7533;51.278;12.588;2023-02-26T01:01:55;99714.03;;;21.95;59.33
14882;BME280;7533;51.278;12.588;2023-02-26T01:06:59;99717.59;;;21.96;59.46
14882;BME280;7533;51.278;12.588;2023-02-26T01:12:05;99725.91;;;21.92;59.54
14882;BME280;7533;51.278;12.588;2023-02-26T01:17:16;99725.31;;;21.89;59.53
14882;BME280;7533;51.278;12.588;2023-02-26T01:22:22;99726.03;;;21.80;59.85
14882;BME280;7533;51.278;12.588;2023-02-26T01:27:28;99741.94;;;21.72;60.07
14882;BME280;7533;51.278;12.588;2023-02-26T01:32:40;99745.09;;;21.65;60.49
14882;BME280;7533;51.278;12.588;2023-02-26T01:37:51;99739.84;;;21.64;60.48
14882;BME280;7533;51.278;12.588;2023-02-26T01:42:59;99742.31;;;21.56;60.83
14882;BME280;7533;51.278;12.588;2023-02-26T01:48:11;99738.34;;;21.49;60.94
14882;BME280;7533;51.278;12.588;2023-02-26T01:53:21;99750.72;;;21.51;60.97
14882;BME280;7533;51.278;12.588;2023-02-26T01:58:26;99757.19;;;21.49;61.02
14882;BME280;7533;51.278;12.588;2023-02-26T02:03:37;99760.28;;;21.44;61.08
14882;BME280;7533;51.278;12.588;2023-02-26T02:08:41;99779.22;;;21.43;61.21
14882;BME280;7533;51.278;12.588;2023-02-26T02:13:55;99784.72;;;21.41;61.04
14882;BME280;7533;51.278;12.588;2023-02-26T02:19:13;99776.88;;;21.38;61.06
14882;BME280;7533;51.278;12.588;2023-02-26T02:24:29;99792.28;;;21.36;60.94
14882;BME280;7533;51.278;12.588;2023-02-26T02:29:53;99793.50;;;21.32;61.23
14882;BME280;7533;51.278;12.588;2023-02-26T02:35:12;99799.00;;;21.30;61.33
14882;BME280;7533;51.278;12.588;2023-02-26T02:40:20;99804.47;;;21.29;61.44
14882;BME280;7533;51.278;12.588;2023-02-26T02:45:28;99811.91;;;21.25;61.76
14882;BME280;7533;51.278;12.588;2023-02-26T02:50:38;99810.34;;;21.23;61.65
14882;BME280;7533;51.278;12.588;2023-02-26T02:55:47;99820.34;;;21.21;61.88
14882;BME280;7533;51.278;12.588;2023-02-26T03:00:57;99826.94;;;21.17;61.83
14882;BME280;7533;51.278;12.588;2023-02-26T03:06:03;99828.03;;;21.14;62.10
14882;BME280;7533;51.278;12.588;2023-02-26T03:11:07;99833.66;;;21.11;62.21
14882;BME280;7533;51.278;12.588;2023-02-26T03:16:33;99845.72;;;21.05;62.38
14882;BME280;7533;51.278;12.588;2023-02-26T03:21:48;99848.50;;;21.04;62.54
14882;BME280;7533;51.278;12.588;2023-02-26T03:27:15;99860.50;;;21.00;62.61
14882;BME280;7533;51.278;12.588;2023-02-26T03:32:24;99865.09;;;20.98;62.44
14882;BME280;7533;51.278;12.588;2023-02-26T03:37:34;99878.69;;;20.96;62.45
14882;BME280;7533;51.278;12.588;2023-02-26T03:42:43;99887.09;;;20.92;62.80
14882;BME280;7533;51.278;12.588;2023-02-26T03:47:50;99899.81;;;20.90;62.89
14882;BME280;7533;51.278;12.588;2023-02-26T03:52:58;99906.38;;;20.85;62.89
14882;BME280;7533;51.278;12.588;2023-02-26T03:58:11;99913.91;;;20.80;63.13
14882;BME280;7533;51.278;12.588;2023-02-26T04:03:49;99929.63;;;20.74;63.24
14882;BME280;7533;51.278;12.588;2023-02-26T04:08:56;99929.97;;;20.69;63.45
14882;BME280;7533;51.278;12.588;2023-02-26T04:14:00;99939.53;;;20.73;63.31
14882;BME280;7533;51.278;12.588;2023-02-26T04:19:06;99951.47;;;20.69;64.00
14882;BME280;7533;51.278;12.588;2023-02-26T04:24:11;99960.06;;;20.74;63.81
14882;BME280;7533;51.278;12.588;2023-02-26T04:29:14;99959.00;;;20.77;63.83
14882;BME280;7533;51.278;12.588;2023-02-26T04:34:17;99968.78;;;20.78;63.87
14882;BME280;7533;51.278;12.588;2023-02-26T04:39:22;99978.56;;;20.79;63.90
14882;BME280;7533;51.278;12.588;2023-02-26T04:44:25;99980.28;;;20.80;63.74
14882;BME280;7533;51.278;12.588;2023-02-26T04:49:28;99987.50;;;20.79;63.98
14882;BME280;7533;51.278;12.588;2023-02-26T04:54:32;99987.38;;;20.81;63.99
14882;BME280;7533;51.278;12.588;2023-02-26T04:59:35;99996.53;;;20.78;64.30
14882;BME280;7533;51.278;12.588;2023-02-26T05:04:40;99999.78;;;20.83;64.42
14882;BME280;7533;51.278;12.588;2023-02-26T05:09:44;100009.44;;;20.86;64.64
14882;BME280;7533;51.278;12.588;2023-02-26T05:14:47;100012.91;;;20.88;64.51
14882;BME280;7533;51.278;12.588;2023-02-26T05:19:50;100022.56;;;20.91;64.61
14882;BME280;7533;51.278;12.588;2023-02-26T05:24:54;100027.75;;;20.94;64.45
14882;BME280;7533;51.278;12.588;2023-02-26T05:29:57;100036.56;;;20.96;64.36
14882;BME280;7533;51.278;12.588;2023-02-26T05:35:00;100045.28;;;20.99;64.42
14882;BME280;7533;51.278;12.588;2023-02-26T05:40:07;100056.91;;;21.00;64.68
14882;BME280;7533;51.278;12.588;2023-02-26T05:45:11;100067.66;;;21.00;64.72
14882;BME280;7533;51.278;12.588;2023-02-26T05:50:14;100080.25;;;20.99;64.48
14882;BME280;7533;51.278;12.588;2023-02-26T05:55:18;100092.81;;;20.99;64.53
14882;BME280;7533;51.278;12.588;2023-02-26T06:00:21;100112.19;;;20.91;64.63
14882;BME280;7533;51.278;12.588;2023-02-26T06:05:24;100122.34;;;20.88;64.77
14882;BME280;7533;51.278;12.588;2023-02-26T06:10:28;100122.66;;;20.83;64.95
14882;BME280;7533;51.278;12.588;2023-02-26T06:15:31;100130.81;;;20.81;65.06
14882;BME280;7533;51.278;12.588;2023-02-26T06:20:34;100137.38;;;20.77;65.29
14882;BME280;7533;51.278;12.588;2023-02-26T06:25:39;100144.69;;;20.75;65.23
14882;BME280;7533;51.278;12.588;2023-02-26T06:30:41;100153.59;;;20.76;65.37
14882;BME280;7533;51.278;12.588;2023-02-26T06:35:44;100159.97;;;20.75;65.14
14882;BME280;7533;51.278;12.588;2023-02-26T06:40:48;100171.78;;;20.72;65.40
14882;BME280;7533;51.278;12.588;2023-02-26T06:45:51;100185.34;;;20.71;65.27
14882;BME280;7533;51.278;12.588;2023-02-26T06:50:54;100192.34;;;20.73;65.63
14882;BME280;7533;51.278;12.588;2023-02-26T06:55:58;100199.66;;;20.71;65.54
14882;BME280;7533;51.278;12.588;2023-02-26T07:01:02;100208.66;;;20.70;65.46
14882;BME280;7533;51.278;12.588;2023-02-26T07:06:06;100216.75;;;20.70;65.62
14882;BME280;7533;51.278;12.588;2023-02-26T07:11:29;100221.38;;;20.68;65.65
14882;BME280;7533;51.278;12.588;2023-02-26T07:16:31;100236.75;;;20.66;65.75
14882;BME280;7533;51.278;12.588;2023-02-26T07:21:34;100243.09;;;20.65;65.77
14882;BME280;7533;51.278;12.588;2023-02-26T07:26:38;100245.81;;;20.65;65.89
14882;BME280;7533;51.278;12.588;2023-02-26T07:31:42;100255.66;;;20.65;65.96
14882;BME280;7533;51.278;12.588;2023-02-26T07:36:45;100262.88;;;20.64;65.90
14882;BME280;7533;51.278;12.588;2023-02-26T07:41:50;100270.28;;;20.60;65.93
14882;BME280;7533;51.278;12.588;2023-02-26T07:46:55;100277.59;;;20.58;66.12
14882;BME280;7533;51.278;12.588;2023-02-26T07:51:58;100285.88;;;20.55;66.35
14882;BME280;7533;51.278;12.588;2023-02-26T07:57:03;100287.03;;;20.51;66.37
14882;BME280;7533;51.278;12.588;2023-02-26T08:02:06;100305.81;;;15.59;47.12
14882;BME280;7533;51.278;12.588;2023-02-26T08:07:09;100332.44;;;13.34;47.40
14882;BME280;7533;51.278;12.588;2023-02-26T08:12:13;100325.28;;;16.02;48.45
14882;BME280;7533;51.278;12.588;2023-02-26T08:17:16;100320.44;;;18.38;47.66
14882;BME280;7533;51.278;12.588;2023-02-26T08:22:19;100330.25;;;19.17;48.26
14882;BME280;7533;51.278;12.588;2023-02-26T08:27:25;100338.59;;;19.56;49.08
14882;BME280;7533;51.278;12.588;2023-02-26T08:32:28;100338.88;;;19.82;50.18
14882;BME280;7533;51.278;12.588;2023-02-26T08:37:31;100339.06;;;20.07;50.93
14882;BME280;7533;51.278;12.588;2023-02-26T08:42:36;100352.81;;;20.31;51.86
14882;BME280;7533;51.278;12.588;2023-02-26T08:47:39;100353.06;;;20.41;52.45
14882;BME280;7533;51.278;12.588;2023-02-26T08:52:57;100364.72;;;20.56;53.51
14882;BME280;7533;51.278;12.588;2023-02-26T08:58:02;100370.38;;;20.66;53.98
14882;BME280;7533;51.278;12.588;2023-02-26T09:03:05;100375.25;;;20.73;54.37
14882;BME280;7533;51.278;12.588;2023-02-26T09:08:08;100383.66;;;20.81;54.59
14882;BME280;7533;51.278;12.588;2023-02-26T09:13:13;100390.47;;;20.87;54.90
14882;BME280;7533;51.278;12.588;2023-02-26T09:18:16;100406.22;;;20.93;54.94
14882;BME280;7533;51.278;12.588;2023-02-26T09:23:19;100409.47;;;20.98;55.26
14882;BME280;7533;51.278;12.588;2023-02-26T09:28:24;100417.25;;;21.03;55.32
14882;BME280;7533;51.278;12.588;2023-02-26T09:33:27;100422.44;;;21.06;55.33
14882;BME280;7533;51.278;12.588;2023-02-26T09:38:30;100431.94;;;21.11;55.48
14882;BME280;7533;51.278;12.588;2023-02-26T09:49:31;100442.09;;;21.21;55.82
14882;BME280;7533;51.278;12.588;2023-02-26T09:54:42;100442.75;;;21.24;55.79
14882;BME280;7533;51.278;12.588;2023-02-26T09:59:46;100464.97;;;21.28;55.87
14882;BME280;7533;51.278;12.588;2023-02-26T10:04:59;100464.59;;;21.34;56.05
14882;BME280;7533;51.278;12.588;2023-02-26T10:10:16;100463.97;;;21.43;56.08
14882;BME280;7533;51.278;12.588;2023-02-26T10:15:22;100458.16;;;21.49;55.95
14882;BME280;7533;51.278;12.588;2023-02-26T10:20:32;100461.22;;;21.57;56.03
14882;BME280;7533;51.278;12.588;2023-02-26T10:25:41;100470.44;;;21.68;55.74
14882;BME280;7533;51.278;12.588;2023-02-26T10:30:51;100479.94;;;21.73;55.65
14882;BME280;7533;51.278;12.588;2023-02-26T10:36:01;100487.72;;;21.78;55.38
14882;BME280;7533;51.278;12.588;2023-02-26T10:41:11;100494.41;;;21.85;55.34
14882;BME280;7533;51.278;12.588;2023-02-26T10:46:21;100487.84;;;21.89;55.37
14882;BME280;7533;51.278;12.588;2023-02-26T10:51:32;100485.66;;;21.94;55.36
14882;BME280;7533;51.278;12.588;2023-02-26T10:56:36;100502.19;;;22.02;55.28
14882;BME280;7533;51.278;12.588;2023-02-26T11:01:39;100502.88;;;22.06;55.45
14882;BME280;7533;51.278;12.588;2023-02-26T11:06:47;100510.94;;;22.06;55.40
14882;BME280;7533;51.278;12.588;2023-02-26T11:11:52;100515.25;;;22.08;55.71
14882;BME280;7533;51.278;12.588;2023-02-26T11:16:57;100508.03;;;22.09;55.53
14882;BME280;7533;51.278;12.588;2023-02-26T11:22:03;100511.19;;;22.15;55.50
14882;BME280;7533;51.278;12.588;2023-02-26T11:27:12;100508.50;;;22.15;55.78
14882;BME280;7533;51.278;12.588;2023-02-26T11:32:18;100514.97;;;22.13;55.94
14882;BME280;7533;51.278;12.588;2023-02-26T11:37:24;100521.91;;;22.17;55.99
14882;BME280;7533;51.278;12.588;2023-02-26T11:47:33;100520.91;;;22.18;56.99
14882;BME280;7533;51.278;12.588;2023-02-26T11:52:42;100527.59;;;22.12;56.53
14882;BME280;7533;51.278;12.588;2023-02-26T11:57:50;100532.88;;;22.14;56.15
14882;BME280;7533;51.278;12.588;2023-02-26T12:02:59;100536.44;;;22.14;54.78
14882;BME280;7533;51.278;12.588;2023-02-26T12:08:13;100536.44;;;22.14;54.11
14882;BME280;7533;51.278;12.588;2023-02-26T12:13:24;100540.53;;;21.25;50.71
14882;BME280;7533;51.278;12.588;2023-02-26T12:18:39;100541.88;;;20.16;42.86
14882;BME280;7533;51.278;12.588;2023-02-26T12:24:06;100547.25;;;20.46;46.42
14882;BME280;7533;51.278;12.588;2023-02-26T12:29:26;100539.56;;;21.26;48.28
14882;BME280;7533;51.278;12.588;2023-02-26T12:34:47;100551.72;;;21.60;48.83
14882;BME280;7533;51.278;12.588;2023-02-26T12:40:11;100541.31;;;21.68;49.44
14882;BME280;7533;51.278;12.588;2023-02-26T12:45:33;100549.28;;;21.70;50.03
14882;BME280;7533;51.278;12.588;2023-02-26T12:50:53;100548.78;;;21.77;50.64
14882;BME280;7533;51.278;12.588;2023-02-26T12:56:15;100554.66;;;21.84;51.06
14882;BME280;7533;51.278;12.588;2023-02-26T13:01:34;100560.78;;;21.86;51.35
14882;BME280;7533;51.278;12.588;2023-02-26T13:06:58;100557.69;;;21.92;51.53
14882;BME280;7533;51.278;12.588;2023-02-26T13:12:15;100562.09;;;21.93;52.01
14882;BME280;7533;51.278;12.588;2023-02-26T13:17:25;100564.91;;;21.91;52.39
14882;BME280;7533;51.278;12.588;2023-02-26T13:22:31;100575.50;;;21.95;52.61
14882;BME280;7533;51.278;12.588;2023-02-26T13:27:37;100574.22;;;22.00;52.71
14882;BME280;7533;51.278;12.588;2023-02-26T13:32:41;100565.06;;;22.03;52.94
14882;BME280;7533;51.278;12.588;2023-02-26T13:37:49;100563.03;;;22.06;52.88
14882;BME280;7533;51.278;12.588;2023-02-26T13:43:00;100568.13;;;22.11;52.89
14882;BME280;7533;51.278;12.588;2023-02-26T13:48:15;100580.81;;;22.09;53.40
14882;BME280;7533;51.278;12.588;2023-02-26T13:53:52;100573.13;;;22.17;53.43
14882;BME280;7533;51.278;12.588;2023-02-26T13:59:03;100571.41;;;22.29;53.19
14882;BME280;7533;51.278;12.588;2023-02-26T14:04:21;100572.06;;;22.32;53.44
14882;BME280;7533;51.278;12.588;2023-02-26T14:09:45;100581.00;;;22.33;53.57
14882;BME280;7533;51.278;12.588;2023-02-26T14:15:26;100584.78;;;22.30;53.79
14882;BME280;7533;51.278;12.588;2023-02-26T14:20:33;100579.28;;;22.44;53.42
14882;BME280;7533;51.278;12.588;2023-02-26T14:25:40;100589.69;;;22.51;53.95
14882;BME280;7533;51.278;12.588;2023-02-26T14:30:47;100597.31;;;22.44;54.58
14882;BME280;7533;51.278;12.588;2023-02-26T14:35:52;100595.81;;;22.40;54.43
14882;BME280;7533;51.278;12.588;2023-02-26T14:40:58;100607.69;;;22.50;54.53
14882;BME280;7533;51.278;12.588;2023-02-26T14:46:07;100600.00;;;22.44;54.45
14882;BME280;7533;51.278;12.588;2023-02-26T14:51:21;100601.75;;;22.45;54.46
14882;BME280;7533;51.278;12.588;2023-02-26T14:56:46;100617.16;;;22.43;54.54
14882;BME280;7533;51.278;12.588;2023-02-26T15:02:04;100620.84;;;22.42;54.62
14882;BME280;7533;51.278;12.588;2023-02-26T15:07:31;100645.13;;;22.42;54.64
14882;BME280;7533;51.278;12.588;2023-02-26T15:12:47;100624.63;;;22.39;54.71
14882;BME280;7533;51.278;12.588;2023-02-26T15:18:13;100628.94;;;22.42;54.80
14882;BME280;7533;51.278;12.588;2023-02-26T15:23:33;100633.66;;;22.38;54.93
14882;BME280;7533;51.278;12.588;2023-02-26T15:28:39;100638.19;;;22.38;55.03
14882;BME280;7533;51.278;12.588;2023-02-26T15:33:46;100645.53;;;22.36;55.22
14882;BME280;7533;51.278;12.588;2023-02-26T15:38:55;100642.84;;;22.36;55.08
14882;BME280;7533;51.278;12.588;2023-02-26T15:44:02;100651.22;;;22.31;55.50
14882;BME280;7533;51.278;12.588;2023-02-26T15:49:08;100639.59;;;22.31;55.50
14882;BME280;7533;51.278;12.588;2023-02-26T15:54:16;100643.81;;;22.35;55.56
14882;BME280;7533;51.278;12.588;2023-02-26T15:59:25;100646.91;;;21.87;44.17
14882;BME280;7533;51.278;12.588;2023-02-26T16:04:30;100653.19;;;22.29;51.00
14882;BME280;7533;51.278;12.588;2023-02-26T16:09:34;100651.78;;;22.36;53.01
14882;BME280;7533;51.278;12.588;2023-02-26T16:14:38;100657.31;;;22.48;53.70
14882;BME280;7533;51.278;12.588;2023-02-26T16:19:46;100658.00;;;22.51;53.91
14882;BME280;7533;51.278;12.588;2023-02-26T16:24:53;100667.13;;;22.49;54.30
14882;BME280;7533;51.278;12.588;2023-02-26T16:29:59;100670.69;;;22.49;54.36
14882;BME280;7533;51.278;12.588;2023-02-26T16:35:10;100681.50;;;22.49;54.59
14882;BME280;7533;51.278;12.588;2023-02-26T16:40:19;100678.38;;;22.55;54.65
14882;BME280;7533;51.278;12.588;2023-02-26T16:45:43;100692.84;;;22.54;54.73
14882;BME280;7533;51.278;12.588;2023-02-26T16:50:56;100703.75;;;22.53;54.79
14882;BME280;7533;51.278;12.588;2023-02-26T16:56:02;100711.84;;;22.53;55.02
14882;BME280;7533;51.278;12.588;2023-02-26T17:01:08;100709.25;;;22.51;55.18
14882;BME280;7533;51.278;12.588;2023-02-26T17:06:17;100723.16;;;22.45;55.45
14882;BME280;7533;51.278;12.588;2023-02-26T17:11:24;100729.59;;;22.42;55.58
14882;BME280;7533;51.278;12.588;2023-02-26T17:16:28;100736.06;;;22.40;55.72
14882;BME280;7533;51.278;12.588;2023-02-26T17:21:33;100746.94;;;22.38;55.63
14882;BME280;7533;51.278;12.588;2023-02-26T17:26:37;100751.75;;;22.33;55.90
14882;BME280;7533;51.278;12.588;2023-02-26T17:31:40;100760.38;;;22.26;56.20
14882;BME280;7533;51.278;12.588;2023-02-26T17:36:45;100757.56;;;22.27;56.05
14882;BME280;7533;51.278;12.588;2023-02-26T17:41:49;100770.59;;;22.21;55.20
14882;BME280;7533;51.278;12.588;2023-02-26T17:46:51;100771.09;;;22.13;55.33
14882;BME280;7533;51.278;12.588;2023-02-26T17:51:56;100784.81;;;22.08;55.16
14882;BME280;7533;51.278;12.588;2023-02-26T17:56:59;100785.78;;;22.07;54.95
14882;BME280;7533;51.278;12.588;2023-02-26T18:02:14;100792.91;;;22.08;54.75
14882;BME280;7533;51.278;12.588;2023-02-26T18:07:19;100796.31;;;22.12;54.54
14882;BME280;7533;51.278;12.588;2023-02-26T18:12:23;100805.75;;;22.19;54.29
14882;BME280;7533;51.278;12.588;2023-02-26T18:17:28;100812.75;;;22.22;54.35
14882;BME280;7533;51.278;12.588;2023-02-26T18:22:33;100825.28;;;22.23;54.10
14882;BME280;7533;51.278;12.588;2023-02-26T18:27:36;100815.78;;;22.17;53.63
14882;BME280;7533;51.278;12.588;2023-02-26T18:32:39;100821.22;;;22.30;53.90
14882;BME280;7533;51.278;12.588;2023-02-26T18:37:44;100831.81;;;22.33;54.09
14882;BME280;7533;51.278;12.588;2023-02-26T18:42:48;100839.91;;;22.33;54.24
14882;BME280;7533;51.278;12.588;2023-02-26T18:47:50;100842.13;;;22.26;54.51
14882;BME280;7533;51.278;12.588;2023-02-26T18:52:56;100848.84;;;22.33;54.59
14882;BME280;7533;51.278;12.588;2023-02-26T18:57:59;100855.91;;;22.36;54.43
14882;BME280;7533;51.278;12.588;2023-02-26T19:03:02;100863.78;;;22.39;54.49
14882;BME280;7533;51.278;12.588;2023-02-26T19:08:06;100875.63;;;22.36;54.16
14882;BME280;7533;51.278;12.588;2023-02-26T19:13:09;100876.91;;;22.31;53.65
14882;BME280;7533;51.278;12.588;2023-02-26T19:18:12;100876.78;;;22.32;54.29
14882;BME280;7533;51.278;12.588;2023-02-26T19:23:16;100881.91;;;22.37;54.30
14882;BME280;7533;51.278;12.588;2023-02-26T19:28:20;100885.56;;;22.36;54.56
14882;BME280;7533;51.278;12.588;2023-02-26T19:33:23;100887.28;;;22.37;54.50
14882;BME280;7533;51.278;12.588;2023-02-26T19:38:27;100890.00;;;22.37;54.63
14882;BME280;7533;51.278;12.588;2023-02-26T19:43:30;100893.66;;;22.36;54.42
14882;BME280;7533;51.278;12.588;2023-02-26T19:48:33;100900.78;;;22.37;54.34
14882;BME280;7533;51.278;12.588;2023-02-26T19:53:37;100916.38;;;22.32;54.54
14882;BME280;7533;51.278;12.588;2023-02-26T19:58:40;100929.09;;;22.30;54.54
14882;BME280;7533;51.278;12.588;2023-02-26T20:03:44;100931.91;;;22.28;54.77
14882;BME280;7533;51.278;12.588;2023-02-26T20:08:50;100942.75;;;22.27;54.90
14882;BME280;7533;51.278;12.588;2023-02-26T20:13:54;100944.22;;;22.32;54.96
14882;BME280;7533;51.278;12.588;2023-02-26T20:18:57;100955.22;;;22.29;54.90
14882;BME280;7533;51.278;12.588;2023-02-26T20:24:01;100950.84;;;22.27;54.91
14882;BME280;7533;51.278;12.588;2023-02-26T20:29:05;100956.94;;;22.30;54.83
14882;BME280;7533;51.278;12.588;2023-02-26T20:34:09;100959.34;;;22.35;54.98
14882;BME280;7533;51.278;12.588;2023-02-26T20:39:13;100965.59;;;22.35;54.90
14882;BME280;7533;51.278;12.588;2023-02-26T20:44:16;100972.84;;;22.35;54.81
14882;BME280;7533;51.278;12.588;2023-02-26T20:49:19;100981.09;;;22.32;54.92
14882;BME280;7533;51.278;12.588;2023-02-26T20:54:24;100977.25;;;22.36;54.80
14882;BME280;7533;51.278;12.588;2023-02-26T20:59:27;100977.94;;;22.39;54.84
14882;BME280;7533;51.278;12.588;2023-02-26T21:04:30;100986.97;;;22.38;54.77
14882;BME280;7533;51.278;12.588;2023-02-26T21:09:34;100995.00;;;22.40;54.72
14882;BME280;7533;51.278;12.588;2023-02-26T21:14:37;100993.06;;;22.42;54.83
14882;BME280;7533;51.278;12.588;2023-02-26T21:19:40;100995.88;;;22.40;54.67
14882;BME280;7533;51.278;12.588;2023-02-26T21:24:44;101004.13;;;22.37;54.74
14882;BME280;7533;51.278;12.588;2023-02-26T21:29:47;101010.19;;;22.27;53.41
14882;BME280;7533;51.278;12.588;2023-02-26T21:34:50;101021.44;;;22.19;53.31
14882;BME280;7533;51.278;12.588;2023-02-26T21:39:54;101021.75;;;22.29;54.35
14882;BME280;7533;51.278;12.588;2023-02-26T21:44:57;101017.91;;;22.33;54.46
14882;BME280;7533;51.278;12.588;2023-02-26T21:50:01;101020.69;;;22.31;54.66
14882;BME280;7533;51.278;12.588;2023-02-26T21:55:05;101019.13;;;22.27;54.68
14882;BME280;7533;51.278;12.588;2023-02-26T22:00:09;101024.53;;;22.27;54.92
14882;BME280;7533;51.278;12.588;2023-02-26T22:05:12;101021.25;;;22.22;55.27
14882;BME280;7533;51.278;12.588;2023-02-26T22:10:17;101035.03;;;22.17;55.33
14882;BME280;7533;51.278;12.588;2023-02-26T22:15:20;101027.81;;;22.18;55.43
14882;BME280;7533;51.278;12.588;2023-02-26T22:20:23;101022.22;;;22.05;55.95
14882;BME280;7533;51.278;12.588;2023-02-26T22:25:27;101044.00;;;22.02;56.12
14882;BME280;7533;51.278;12.588;2023-02-26T22:30:31;101039.63;;;22.00;56.15
14882;BME280;7533;51.278;12.588;2023-02-26T22:35:34;101041.56;;;21.98;56.27
14882;BME280;7533;51.278;12.588;2023-02-26T22:40:38;101041.78;;;21.95;56.43
14882;BME280;7533;51.278;12.588;2023-02-26T22:45:41;101051.84;;;21.91;56.53
14882;BME280;7533;51.278;12.588;2023-02-26T22:50:44;101049.75;;;21.96;56.59
14882;BME280;7533;51.278;12.588;2023-02-26T22:55:48;101054.28;;;21.96;56.64
14882;BME280;7533;51.278;12.588;2023-02-26T23:00:57;101049.56;;;21.99;56.54
14882;BME280;7533;51.278;12.588;2023-02-26T23:06:00;101056.78;;;21.99;56.58
14882;BME280;7533;51.278;12.588;2023-02-26T23:11:05;101057.75;;;21.98;56.54
14882;BME280;7533;51.278;12.588;2023-02-26T23:16:09;101067.81;;;21.94;56.59
14882;BME280;7533;51.278;12.588;2023-02-26T23:21:13;101062.81;;;21.88;56.90
14882;BME280;7533;51.278;12.588;2023-02-26T23:26:18;101063.16;;;21.82;57.25
14882;BME280;7533;51.278;12.588;2023-02-26T23:31:21;101068.81;;;21.77;57.64
14882;BME280;7533;51.278;12.588;2023-02-26T23:36:24;101063.97;;;21.68;57.76
14882;BME280;7533;51.278;12.588;2023-02-26T23:41:28;101074.25;;;21.61;58.09
14882;BME280;7533;51.278;12.588;2023-02-26T23:46:31;101077.28;;;21.55;58.15
14882;BME280;7533;51.278;12.588;2023-02-26T23:51:34;101073.03;;;21.51;58.43
14882;BME280;7533;51.278;12.588;2023-02-26T23:56:40;101074.25;;;21.46;58.58
